Soleil Weather Down

Nearby METAR Reports

 

KCNI - Canton/Cherokee, Georgia, USA
Distance from station: ENE 6mi, 10km
Updated: Sun, 05-Apr-2020 5:30pm EDT
Mostly cloudy
Mostly cloudy
 Wind from calm
Wind: Calm
Temperature: 79°F , 26°C
Dew Point: 37°F , 3°C
Humidity: 23%
Barometer: 30.02 inHg , 1016.6 hPa
Clouds: Mostly cloudy
Visibility: 10 miles , 16 km
Cloud details: Mostly cloudy 9500 ft
2020/04/05 21:30 KCNI 052130Z AUTO 00000KT 10SM BKN095 26/03 A3002 RMK AO2
KRYY - Marietta Mccolum, Georgia, USA
Distance from station: SSW 18mi, 29km
Updated: Sun, 05-Apr-2020 5:50pm EDT
Partly cloudy
Partly cloudy
 Wind from varies
Wind: varies 3 mph , 6 km/h
Temperature: 79°F , 26°C
Dew Point: 46°F , 8°C
Humidity: 32%
Barometer: 30.01 inHg , 1016.3 hPa
Clouds: Partly cloudy
Visibility: 10 miles , 16 km
Cloud details: Partly cloudy 9500 ft
2020/04/05 21:50 KRYY 052150Z VRB03KT 10SM SCT095 26/08 A3001 RMK AO2 SLP882 T02610078 PNO $
KVPC - Cartersville, Georgia, USA
Distance from station: WSW 22mi, 35km
Updated: Sun, 05-Apr-2020 4:53pm EDT
Clear
Clear
 Wind from calm
Wind: Calm
Temperature: 82°F , 28°C
Dew Point: 46°F , 8°C
Humidity: 28%
Barometer: 29.99 inHg , 1015.6 hPa
Clouds: Clear
Visibility: 10 miles , 16 km
2020/04/05 20:53 KVPC 052053Z AUTO 00000KT 10SM CLR 28/08 A2999 RMK AO2 SLP147 T02780078 56015
 
KMGE - Dobbins Afb/Mari, Georgia, USA
Distance from station: S 24mi, 39km
Updated: Sun, 05-Apr-2020 4:56pm EDT
Partly cloudy
Partly cloudy
 Wind from WNW
Wind: WNW 3 mph , 6 km/h
Temperature: 79°F , 26°C
Dew Point: 41°F , 5°C
Humidity: 26%
Barometer: 30.00 inHg , 1015.9 hPa
Clouds: Partly cloudy
Visibility: 10 miles , 16 km
Cloud details: Partly cloudy 8500 ft
Partly cloudy 25000 ft
2020/04/05 20:56 KMGE 052056Z 30003KT 10SM SCT085 SCT250 26/05 A3000 RMK AO2A SLP153 T02620052 57016 $
KPDK - Peachtree/Dekalb, Georgia, USA
Distance from station: SSE 29mi, 47km
Updated: Sun, 05-Apr-2020 4:53pm EDT
Few Clouds
Few Clouds
 Wind from SSE
Wind: SSE 5 mph , 7 km/h
Temperature: 77°F , 25°C
Dew Point: 45°F , 7°C
Humidity: 32%
Barometer: 30.00 inHg , 1015.9 hPa
Clouds: Few Clouds
Visibility: 10 miles , 16 km
Cloud details: Few Clouds 9000 ft
2020/04/05 20:53 KPDK 052053Z 16004KT 10SM FEW090 25/07 A3000 RMK AO2 SLP150 T02500072 56017
KFTY - Atlanta/Fulton, Georgia, USA
Distance from station: S 34mi, 54km
Updated: Sun, 05-Apr-2020 4:53pm EDT
Partly cloudy
Partly cloudy
 Wind from calm
Wind: Calm
Temperature: 79°F , 26°C
Dew Point: 43°F , 6°C
Humidity: 28%
Barometer: 29.99 inHg , 1015.6 hPa
Clouds: Partly cloudy
Visibility: 10 miles , 16 km
Cloud details: Partly cloudy 8500 ft
2020/04/05 20:53 KFTY 052053Z 00000KT 10SM SCT085 26/06 A2999 RMK AO2 SLP150 T02610061 56016
 
KPUJ - Atlanta/Paulding, Georgia, USA
Distance from station: SW 34mi, 55km
Updated: Sun, 05-Apr-2020 5:35pm EDT
Partly cloudy
Partly cloudy
 Wind from NNW
Wind: NNW 3 mph , 6 km/h
Temperature: 77°F , 25°C
Dew Point: 43°F , 6°C
Humidity: 30%
Barometer: 30.00 inHg , 1015.9 hPa
Clouds: Partly cloudy
Visibility: 10 miles , 16 km
Cloud details: Partly cloudy 8000 ft
2020/04/05 21:35 KPUJ 052135Z AUTO 33003KT 10SM SCT080 25/06 A3000 RMK AO2
KDNN - Dalton, Georgia, USA
Distance from station: NW 37mi, 59km
Updated: Sun, 05-Apr-2020 5:35pm EDT
Partly cloudy
Partly cloudy
 Wind from NNE
Wind: NNE 3 mph , 6 km/h
Temperature: 81°F , 27°C
Dew Point: 34°F , 1°C
Humidity: 18%
Barometer: 30.00 inHg , 1015.9 hPa
Clouds: Partly cloudy
Visibility: 10 miles , 16 km
Cloud details: Partly cloudy 9500 ft
2020/04/05 21:35 KDNN 052135Z AUTO 02003KT 10SM SCT095 27/01 A3000 RMK AO2
KLZU - Lawrenceville, Georgia, USA
Distance from station: ESE 37mi, 59km
Updated: Sun, 05-Apr-2020 4:56pm EDT
Mostly cloudy
Mostly cloudy
 Wind from SSW
Wind: SSW 9 mph , 15 km/h
Temperature: 79°F , 26°C
Dew Point: 48°F , 9°C
Humidity: 34%
Barometer: 30.01 inHg , 1016.3 hPa
Clouds: Mostly cloudy
Visibility: 10 miles , 16 km
Cloud details: Mostly cloudy 8000 ft
2020/04/05 20:56 KLZU 052056Z 20008KT 180V280 10SM BKN080 26/09 A3001 RMK AO2 SLP165 T02560089 56017
 
KRMG - Rome, Georgia, USA
Distance from station: W 38mi, 61km
Updated: Sun, 05-Apr-2020 4:53pm EDT
Few Clouds
Few Clouds
 Wind from S
Wind: S 6 mph , 9 km/h
Temperature: 82°F , 28°C
Dew Point: 45°F , 7°C
Humidity: 26%
Barometer: 29.97 inHg , 1014.9 hPa
Clouds: Few Clouds
Visibility: 10 miles , 16 km
Cloud details: Few Clouds 9000 ft
2020/04/05 20:53 KRMG 052053Z AUTO 18005KT 10SM FEW090 28/07 A2997 RMK AO2 SLP142 T02830067 56016
KGVL - Gainesville, Georgia, USA
Distance from station: E 39mi, 62km
Updated: Sun, 05-Apr-2020 4:53pm EDT
Partly cloudy
Partly cloudy
 Wind from calm
Wind: Calm
Temperature: 77°F , 25°C
Dew Point: 45°F , 7°C
Humidity: 32%
Barometer: 30.03 inHg , 1016.9 hPa
Clouds: Partly cloudy
Visibility: 10 miles , 16 km
Cloud details: Partly cloudy 7500 ft
2020/04/05 20:53 KGVL 052053Z AUTO 00000KT 10SM SCT075 25/07 A3003 RMK AO2 SLP155 T02500067 56016
KATL - Atlanta, Georgia, USA
Distance from station: S 44mi, 71km
Updated: Sun, 05-Apr-2020 4:52pm EDT
Mostly cloudy
Mostly cloudy
 Wind from WNW
Wind: WNW 3 mph , 6 km/h
Temperature: 77°F , 25°C
Dew Point: 46°F , 8°C
Humidity: 34%
Barometer: 30.01 inHg , 1016.3 hPa
Clouds: Mostly cloudy
Visibility: 10 miles , 16 km
Cloud details: Partly cloudy 7000 ft
Mostly cloudy 25000 ft
2020/04/05 20:52 KATL 052052Z 29003KT 10SM SCT070 BKN250 25/08 A3001 RMK AO2 SLP154 T02500083 56017 $